createdAt,value
2022-11-26T00:02:36.013Z,11.35
2022-11-26T00:05:02.994Z,8.65
2022-11-26T00:07:30.960Z,12.48
2022-11-26T00:09:59.284Z,5.57
2022-11-26T00:12:33.460Z,6.65
2022-11-26T00:15:10.169Z,5.45
2022-11-26T00:17:36.954Z,9.27
2022-11-26T00:20:03.967Z,3.75
2022-11-26T00:22:35.635Z,7.88
2022-11-26T00:25:02.419Z,7.95
2022-11-26T00:27:29.315Z,4.38
2022-11-26T00:29:56.283Z,9.73
2022-11-26T00:32:25.727Z,5.93
2022-11-26T00:34:53.395Z,4.93
2022-11-26T00:37:21.518Z,8.50
2022-11-26T00:39:49.091Z,7.93
2022-11-26T00:42:16.320Z,7.28
2022-11-26T00:44:43.115Z,6.85
2022-11-26T00:47:10.564Z,3.92
2022-11-26T00:49:37.774Z,9.18
2022-11-26T00:52:09.779Z,8.05
2022-11-26T00:54:37.601Z,11.93
2022-11-26T00:57:04.539Z,10.23
2022-11-26T00:59:31.321Z,10.88
2022-11-26T01:01:58.124Z,5.22
2022-11-26T01:04:24.962Z,9.30
2022-11-26T01:06:52.085Z,7.00
2022-11-26T01:09:21.175Z,8.70
2022-11-26T01:11:53.450Z,10.35
2022-11-26T01:14:22.347Z,6.70
2022-11-26T01:16:49.882Z,4.00
2022-11-26T01:19:17.158Z,6.05
2022-11-26T01:21:44.192Z,7.15
2022-11-26T01:24:11.404Z,9.60
2022-11-26T01:26:43.725Z,8.77
2022-11-26T01:29:19.162Z,13.77
2022-11-26T01:31:46.666Z,6.72
2022-11-26T01:34:13.907Z,9.48
2022-11-26T01:36:41.218Z,5.20
2022-11-26T01:39:16.262Z,6.50
2022-11-26T01:42:20.595Z,6.03
2022-11-26T01:44:47.385Z,5.65
2022-11-26T01:47:25.030Z,6.30
2022-11-26T01:50:32.140Z,6.10
2022-11-26T01:53:11.957Z,4.88
2022-11-26T01:55:41.596Z,5.78
2022-11-26T01:58:13.070Z,5.68
2022-11-26T02:00:40.608Z,6.53
2022-11-26T02:03:08.966Z,8.27
2022-11-26T02:05:42.641Z,3.67
2022-11-26T02:08:11.176Z,8.25
2022-11-26T02:10:38.039Z,6.60
2022-11-26T02:13:05.572Z,5.65
2022-11-26T02:15:44.038Z,6.32
2022-11-26T02:18:11.288Z,5.80
2022-11-26T02:20:47.424Z,9.10
2022-11-26T02:25:55.737Z,9.65
2022-11-26T02:28:50.875Z,7.43
2022-11-26T02:31:29.660Z,5.45
2022-11-26T02:34:05.374Z,5.45
2022-11-26T02:36:34.688Z,8.13
2022-11-26T02:39:17.000Z,8.48
2022-11-26T02:41:54.022Z,10.68
2022-11-26T02:44:28.308Z,8.32
2022-11-26T02:47:02.741Z,8.35
2022-11-26T02:49:31.351Z,6.40
2022-11-26T02:52:01.541Z,8.23
2022-11-26T02:54:30.182Z,12.63
2022-11-26T02:56:58.171Z,5.78
2022-11-26T02:59:25.212Z,8.07
2022-11-26T03:02:03.229Z,5.57
2022-11-26T03:04:36.111Z,10.18
2022-11-26T03:07:05.472Z,13.70
2022-11-26T03:09:50.990Z,9.48
2022-11-26T03:12:18.039Z,9.93
2022-11-26T03:14:44.958Z,10.88
2022-11-26T03:17:12.553Z,10.25
2022-11-26T03:19:39.967Z,6.20
2022-11-26T03:22:06.887Z,9.68
2022-11-26T03:24:33.840Z,9.77
2022-11-26T03:27:00.823Z,11.70
2022-11-26T03:29:27.718Z,10.10
2022-11-26T03:31:54.476Z,11.35
2022-11-26T03:34:21.278Z,14.82
2022-11-26T03:36:48.286Z,8.50
2022-11-26T03:39:15.240Z,8.57
2022-11-26T03:41:44.680Z,7.65
2022-11-26T03:44:12.804Z,5.85
2022-11-26T03:46:40.332Z,10.88
2022-11-26T03:49:07.176Z,8.95
2022-11-26T03:51:34.289Z,5.68
2022-11-26T03:54:01.045Z,8.52
2022-11-26T03:56:27.923Z,8.93
2022-11-26T03:58:54.668Z,6.55
2022-11-26T04:01:22.487Z,8.30
2022-11-26T04:03:49.305Z,6.10
2022-11-26T04:06:16.177Z,6.00
2022-11-26T04:08:42.984Z,6.03
2022-11-26T04:11:09.874Z,8.25
2022-11-26T04:13:36.691Z,8.25
2022-11-26T04:16:03.659Z,4.57
2022-11-26T04:18:30.482Z,4.10
2022-11-26T04:20:57.364Z,6.10
2022-11-26T04:23:24.220Z,8.32
2022-11-26T04:25:51.064Z,4.25
2022-11-26T04:28:17.904Z,3.20
2022-11-26T04:30:44.841Z,6.80
2022-11-26T04:33:11.742Z,9.55
2022-11-26T04:35:38.820Z,4.28
2022-11-26T04:38:05.644Z,8.77
2022-11-26T04:40:32.932Z,6.22
2022-11-26T04:42:59.787Z,6.40
2022-11-26T04:45:27.463Z,3.97
2022-11-26T04:47:54.577Z,5.10
2022-11-26T04:50:21.416Z,9.05
2022-11-26T04:52:48.575Z,4.03
2022-11-26T04:55:16.626Z,6.95
2022-11-26T04:57:44.344Z,4.72
2022-11-26T05:00:11.957Z,8.88
2022-11-26T05:02:38.953Z,8.38
2022-11-26T05:05:06.188Z,4.13
2022-11-26T05:07:33.891Z,3.88
2022-11-26T05:10:01.069Z,9.57
2022-11-26T05:12:27.873Z,8.93
2022-11-26T05:14:54.707Z,7.97
2022-11-26T05:17:21.832Z,3.35
2022-11-26T05:19:48.627Z,6.80
2022-11-26T05:22:15.416Z,3.40
2022-11-26T05:24:42.171Z,4.72
2022-11-26T05:27:08.990Z,5.95
2022-11-26T05:29:35.765Z,8.40
2022-11-26T05:32:02.646Z,5.82
2022-11-26T05:34:29.544Z,5.55
2022-11-26T05:36:56.345Z,4.30
2022-11-26T05:39:23.186Z,5.75
2022-11-26T05:41:49.982Z,4.05
2022-11-26T05:44:16.803Z,4.53
2022-11-26T05:46:43.689Z,8.95
2022-11-26T05:49:10.512Z,4.40
2022-11-26T05:51:37.317Z,7.05
2022-11-26T05:54:04.320Z,4.15
2022-11-26T05:56:31.125Z,5.55
2022-11-26T05:58:57.884Z,10.02
2022-11-26T06:01:24.733Z,4.75
2022-11-26T06:03:51.615Z,3.58
2022-11-26T06:06:18.433Z,8.70
2022-11-26T06:08:45.210Z,3.45
2022-11-26T06:11:13.614Z,4.88
2022-11-26T06:13:40.466Z,4.07
2022-11-26T06:16:07.802Z,5.63
2022-11-26T06:18:36.316Z,3.83
2022-11-26T06:21:04.906Z,5.88
2022-11-26T06:23:33.309Z,3.17
2022-11-26T06:26:00.886Z,11.13
2022-11-26T06:28:27.723Z,5.10
2022-11-26T06:30:54.475Z,4.25
2022-11-26T06:33:21.330Z,7.45
2022-11-26T06:35:48.091Z,6.18
2022-11-26T06:38:15.233Z,4.40
2022-11-26T06:40:42.042Z,4.13
2022-11-26T06:43:08.858Z,2.58
2022-11-26T06:45:35.670Z,4.53
2022-11-26T06:48:02.596Z,4.90
2022-11-26T06:50:29.748Z,4.68
2022-11-26T06:53:03.280Z,6.68
2022-11-26T06:55:30.191Z,7.13
2022-11-26T06:57:57.011Z,9.45
2022-11-26T07:00:23.860Z,5.70
2022-11-26T07:02:50.783Z,4.03
2022-11-26T07:05:18.025Z,8.27
2022-11-26T07:07:44.998Z,4.55
2022-11-26T07:10:13.096Z,5.50
2022-11-26T07:12:40.313Z,9.40
2022-11-26T07:15:07.888Z,7.30
2022-11-26T07:17:34.757Z,7.13
2022-11-26T07:20:01.515Z,4.00
2022-11-26T07:22:28.408Z,8.25
2022-11-26T07:24:55.326Z,7.75
2022-11-26T07:27:22.093Z,5.28
2022-11-26T07:29:49.205Z,7.57
2022-11-26T07:32:16.079Z,6.47
2022-11-26T07:34:42.863Z,6.50
2022-11-26T07:37:09.882Z,4.38
2022-11-26T07:39:37.129Z,14.43
2022-11-26T07:42:04.102Z,8.50
2022-11-26T07:44:30.877Z,9.73
2022-11-26T07:46:58.046Z,8.25
2022-11-26T07:49:24.923Z,10.38
2022-11-26T07:51:51.834Z,6.00
2022-11-26T07:54:18.587Z,15.85
2022-11-26T07:56:45.360Z,14.70
2022-11-26T07:59:12.350Z,5.68
2022-11-26T08:01:39.443Z,9.52
2022-11-26T08:04:07.070Z,5.60
2022-11-26T08:06:34.492Z,11.82
2022-11-26T08:09:02.545Z,7.93
2022-11-26T08:11:32.082Z,8.57
2022-11-26T08:14:01.122Z,5.50
2022-11-26T08:16:29.201Z,4.13
2022-11-26T08:19:01.389Z,11.02
2022-11-26T08:21:28.593Z,7.75
2022-11-26T08:23:56.310Z,7.35
2022-11-26T08:26:32.656Z,8.82
2022-11-26T08:29:01.807Z,4.82
2022-11-26T08:31:28.860Z,9.70
2022-11-26T08:34:00.297Z,4.72
2022-11-26T08:36:28.369Z,4.30
2022-11-26T08:38:55.342Z,4.78
2022-11-26T08:41:22.313Z,6.30
2022-11-26T08:44:06.065Z,4.38
2022-11-26T08:46:33.896Z,4.40
2022-11-26T08:49:00.805Z,8.30
2022-11-26T08:51:27.720Z,13.25
2022-11-26T08:53:54.626Z,9.48
2022-11-26T08:56:21.545Z,4.43
2022-11-26T08:58:49.325Z,8.68
2022-11-26T09:01:24.461Z,8.13
2022-11-26T09:03:53.440Z,10.85
2022-11-26T09:06:21.787Z,8.45
2022-11-26T09:09:07.562Z,9.82
2022-11-26T09:11:36.972Z,7.22
2022-11-26T09:14:03.932Z,10.95
2022-11-26T09:16:31.287Z,7.43
2022-11-26T09:19:00.907Z,10.10
2022-11-26T09:21:27.692Z,9.35
2022-11-26T09:23:55.027Z,11.55
2022-11-26T09:26:22.819Z,9.77
2022-11-26T09:28:49.894Z,12.50
2022-11-26T09:31:18.094Z,11.20
2022-11-26T09:33:45.359Z,12.35
2022-11-26T09:36:14.465Z,12.90
2022-11-26T09:38:41.853Z,9.90
2022-11-26T09:41:29.834Z,10.13
2022-11-26T09:44:15.436Z,7.75
2022-11-26T09:47:11.509Z,14.85
2022-11-26T09:52:30.199Z,10.32
2022-11-26T09:55:10.038Z,9.90
2022-11-26T09:58:00.438Z,14.98
2022-11-26T10:00:36.894Z,14.00
2022-11-26T10:03:12.978Z,11.98
2022-11-26T10:08:19.512Z,10.25
2022-11-26T10:10:57.032Z,8.68
2022-11-26T10:13:46.937Z,10.43
2022-11-26T10:16:35.100Z,9.90
2022-11-26T10:19:04.966Z,11.63
2022-11-26T10:21:59.066Z,12.88
2022-11-26T10:24:42.083Z,9.13
2022-11-26T10:27:18.622Z,7.80
2022-11-26T10:29:51.992Z,9.50
2022-11-26T10:32:26.371Z,11.23
2022-11-26T10:34:56.023Z,9.43
2022-11-26T10:37:25.958Z,12.68
2022-11-26T10:40:18.791Z,9.70
2022-11-26T10:43:12.629Z,14.32
2022-11-26T10:46:05.764Z,14.25
2022-11-26T10:48:36.208Z,12.43
2022-11-26T10:51:30.302Z,10.27
2022-11-26T10:54:02.911Z,9.68
2022-11-26T10:56:36.614Z,10.45
2022-11-26T10:59:18.301Z,11.45
2022-11-26T11:01:45.271Z,7.53
2022-11-26T11:04:35.316Z,14.57
2022-11-26T11:07:02.075Z,9.68
2022-11-26T11:09:35.230Z,8.55
2022-11-26T11:12:10.586Z,10.32
2022-11-26T11:14:43.053Z,13.48
2022-11-26T11:17:36.159Z,12.70
2022-11-26T11:20:26.934Z,8.98
2022-11-26T11:23:10.709Z,14.18
2022-11-26T11:25:40.612Z,11.50
2022-11-26T11:28:17.032Z,14.98
2022-11-26T11:30:46.079Z,6.78
2022-11-26T11:33:27.781Z,8.23
2022-11-26T11:36:09.341Z,11.98
2022-11-26T11:38:52.903Z,7.28
2022-11-26T11:41:47.931Z,16.42
2022-11-26T11:44:33.301Z,11.60
2022-11-26T11:47:09.252Z,8.55
2022-11-26T11:50:03.565Z,11.38
2022-11-26T11:52:56.097Z,8.98
2022-11-26T11:55:30.218Z,8.25
2022-11-26T11:58:16.372Z,8.63
2022-11-26T12:01:24.638Z,11.43
2022-11-26T12:04:07.175Z,7.07
2022-11-26T12:06:43.263Z,10.27
2022-11-26T12:09:27.104Z,8.48
2022-11-26T12:11:58.724Z,9.48
2022-11-26T12:14:39.270Z,8.23
2022-11-26T12:17:39.210Z,10.45
2022-11-26T12:20:33.410Z,9.60
2022-11-26T12:23:13.214Z,10.65
2022-11-26T12:25:43.515Z,9.48
2022-11-26T12:28:17.635Z,11.63
2022-11-26T12:31:05.768Z,11.57
2022-11-26T12:33:51.452Z,10.32
2022-11-26T12:36:31.514Z,12.48
2022-11-26T12:39:03.623Z,11.45
2022-11-26T12:41:46.461Z,14.38
2022-11-26T12:44:32.784Z,16.42
2022-11-26T12:47:10.168Z,15.18
2022-11-26T12:49:43.885Z,20.05
2022-11-26T12:52:48.937Z,15.13
2022-11-26T12:55:35.586Z,15.00
2022-11-26T12:58:20.659Z,14.95
2022-11-26T13:00:49.677Z,18.00
2022-11-26T13:03:18.723Z,14.23
2022-11-26T13:05:55.925Z,13.55
2022-11-26T13:08:59.863Z,16.17
2022-11-26T13:11:48.059Z,17.00
2022-11-26T13:14:39.124Z,17.73
2022-11-26T13:17:18.787Z,14.48
2022-11-26T13:20:08.901Z,11.75
2022-11-26T13:23:03.632Z,17.45
2022-11-26T13:25:48.747Z,10.98
2022-11-26T13:28:44.247Z,12.40
2022-11-26T13:31:36.681Z,9.82
2022-11-26T13:34:19.036Z,11.32
2022-11-26T13:37:21.092Z,13.02
2022-11-26T13:40:28.911Z,13.45
2022-11-26T13:43:41.027Z,10.50
2022-11-26T13:46:22.124Z,14.20
2022-11-26T13:48:58.972Z,15.18
2022-11-26T13:51:42.159Z,13.32
2022-11-26T13:54:19.978Z,10.15
2022-11-26T13:56:48.445Z,11.00
2022-11-26T13:59:26.888Z,11.18
2022-11-26T14:01:56.280Z,10.50
2022-11-26T14:04:23.207Z,9.80
2022-11-26T14:07:05.516Z,9.98
2022-11-26T14:09:44.514Z,10.43
2022-11-26T14:12:15.651Z,15.57
2022-11-26T14:14:43.578Z,11.45
2022-11-26T14:17:19.227Z,11.02
2022-11-26T14:19:49.046Z,13.18
2022-11-26T14:22:22.151Z,11.82
2022-11-26T14:24:51.625Z,12.77
2022-11-26T14:27:53.178Z,10.35
2022-11-26T14:30:22.839Z,13.30
2022-11-26T14:32:55.224Z,13.18
2022-11-26T14:35:33.643Z,10.73
2022-11-26T14:38:03.679Z,13.68
2022-11-26T14:40:36.049Z,8.68
2022-11-26T14:43:06.456Z,9.93
2022-11-26T14:45:34.019Z,7.85
2022-11-26T14:48:03.694Z,9.60
2022-11-26T14:50:33.481Z,10.25
2022-11-26T14:53:05.265Z,12.18
2022-11-26T14:55:34.688Z,11.25
2022-11-26T14:58:09.770Z,9.70
2022-11-26T15:00:37.105Z,16.20
2022-11-26T15:03:04.582Z,15.13
2022-11-26T15:05:34.035Z,14.52
2022-11-26T15:08:00.789Z,15.60
2022-11-26T15:10:37.615Z,14.57
2022-11-26T15:13:16.289Z,12.23
2022-11-26T15:15:54.452Z,14.20
2022-11-26T15:18:27.475Z,17.23
2022-11-26T15:20:55.314Z,9.63
2022-11-26T15:23:29.499Z,16.48
2022-11-26T15:25:58.778Z,14.48
2022-11-26T15:28:25.776Z,17.48
2022-11-26T15:30:59.613Z,16.70
2022-11-26T15:33:29.374Z,13.90
2022-11-26T15:36:00.040Z,13.20
2022-11-26T15:38:30.398Z,14.68
2022-11-26T15:41:14.981Z,17.95
2022-11-26T15:43:46.777Z,12.38
2022-11-26T15:46:18.961Z,20.23
2022-11-26T15:48:53.355Z,17.15
2022-11-26T15:51:35.526Z,18.58
2022-11-26T15:54:16.063Z,14.95
2022-11-26T15:56:42.939Z,16.25
2022-11-26T15:59:16.938Z,12.02
2022-11-26T16:01:45.889Z,17.25
2022-11-26T16:04:50.955Z,16.98
2022-11-26T16:07:22.230Z,15.52
2022-11-26T16:09:50.751Z,12.48
2022-11-26T16:12:35.100Z,12.57
2022-11-26T16:15:17.127Z,13.32
2022-11-26T16:17:44.181Z,15.00
2022-11-26T16:20:26.896Z,14.70
2022-11-26T16:22:58.670Z,9.95
2022-11-26T16:25:33.169Z,13.27
2022-11-26T16:28:09.967Z,11.88
2022-11-26T16:30:38.083Z,13.88
2022-11-26T16:33:06.095Z,18.13
2022-11-26T16:35:48.901Z,12.63
2022-11-26T16:38:26.805Z,15.63
2022-11-26T16:40:54.255Z,10.13
2022-11-26T16:43:21.800Z,13.27
2022-11-26T16:45:53.052Z,14.98
2022-11-26T16:48:25.770Z,15.20
2022-11-26T16:50:55.136Z,12.43
2022-11-26T16:53:22.331Z,14.40
2022-11-26T16:55:50.014Z,13.77
2022-11-26T16:58:23.001Z,12.32
2022-11-26T17:00:51.143Z,13.18
2022-11-26T17:03:18.168Z,10.80
2022-11-26T17:05:45.096Z,11.02
2022-11-26T17:08:13.290Z,11.80
2022-11-26T17:10:40.581Z,12.40
2022-11-26T17:13:07.551Z,12.00
2022-11-26T17:15:34.799Z,14.75
2022-11-26T17:18:06.786Z,12.07
2022-11-26T17:20:33.671Z,14.70
2022-11-26T17:23:00.419Z,13.77
2022-11-26T17:25:27.408Z,18.45
2022-11-26T17:27:54.403Z,15.38
2022-11-26T17:30:24.248Z,18.63
2022-11-26T17:32:51.539Z,15.73
2022-11-26T17:35:18.689Z,18.60
2022-11-26T17:37:45.986Z,14.93
2022-11-26T17:40:23.824Z,13.18
2022-11-26T17:42:51.321Z,14.80
2022-11-26T17:45:18.771Z,17.27
2022-11-26T17:47:45.880Z,14.82
2022-11-26T17:50:22.276Z,15.70
2022-11-26T17:52:49.837Z,13.52
2022-11-26T17:55:18.276Z,12.10
2022-11-26T17:57:45.142Z,14.75
2022-11-26T18:00:16.352Z,13.90
2022-11-26T18:02:43.875Z,11.00
2022-11-26T18:05:11.318Z,16.30
2022-11-26T18:07:39.441Z,14.05
2022-11-26T18:10:09.944Z,12.50
2022-11-26T18:12:36.752Z,12.95
2022-11-26T18:15:05.186Z,10.25
2022-11-26T18:17:32.115Z,11.75
2022-11-26T18:19:58.978Z,10.43
2022-11-26T18:22:27.301Z,11.30
2022-11-26T18:24:56.989Z,7.45
2022-11-26T18:27:30.722Z,8.85
2022-11-26T18:29:57.599Z,12.02
2022-11-26T18:32:24.442Z,13.13
2022-11-26T18:34:51.631Z,14.20
2022-11-26T18:37:18.832Z,11.93
2022-11-26T18:39:45.645Z,11.25
2022-11-26T18:45:00.657Z,11.60
2022-11-26T18:47:27.478Z,11.27
2022-11-26T18:49:54.542Z,12.07
2022-11-26T18:52:21.374Z,14.07
2022-11-26T18:54:48.182Z,16.15
2022-11-26T18:57:15.014Z,13.35
2022-11-26T18:59:42.181Z,8.93
2022-11-26T19:02:10.863Z,9.63
2022-11-26T19:04:39.017Z,7.90
2022-11-26T19:07:05.904Z,7.93
2022-11-26T19:09:32.709Z,10.68
2022-11-26T19:11:59.546Z,13.25
2022-11-26T19:14:26.475Z,13.05
2022-11-26T19:16:53.531Z,11.32
2022-11-26T19:19:20.366Z,10.45
2022-11-26T19:21:47.130Z,7.32
2022-11-26T19:24:14.951Z,5.72
2022-11-26T19:26:42.253Z,10.68
2022-11-26T19:29:11.952Z,10.65
2022-11-26T19:31:39.894Z,7.93
2022-11-26T19:34:12.266Z,7.15
2022-11-26T19:36:39.278Z,11.07
2022-11-26T19:39:07.998Z,10.60
2022-11-26T19:41:35.284Z,10.70
2022-11-26T19:44:04.039Z,7.65
2022-11-26T19:46:31.379Z,6.35
2022-11-26T19:48:58.454Z,9.85
2022-11-26T19:51:26.403Z,6.60
2022-11-26T19:53:54.894Z,8.32
2022-11-26T19:56:30.793Z,4.93
2022-11-26T19:59:00.228Z,7.15
2022-11-26T20:01:30.604Z,5.90
2022-11-26T20:04:03.262Z,8.45
2022-11-26T20:06:31.883Z,14.95
2022-11-26T20:08:59.403Z,6.45
2022-11-26T20:11:28.415Z,6.38
2022-11-26T20:13:56.292Z,12.13
2022-11-26T20:16:29.383Z,8.85
2022-11-26T20:18:57.291Z,6.57
2022-11-26T20:21:26.743Z,7.35
2022-11-26T20:23:56.969Z,4.15
2022-11-26T20:26:29.810Z,7.80
2022-11-26T20:29:00.820Z,4.40
2022-11-26T20:31:28.032Z,6.15
2022-11-26T20:33:55.452Z,6.32
2022-11-26T20:36:23.978Z,4.78
2022-11-26T20:38:55.719Z,4.53
2022-11-26T20:41:23.827Z,6.72
2022-11-26T20:43:56.631Z,7.55
2022-11-26T20:46:26.261Z,7.40
2022-11-26T20:48:56.435Z,5.38
2022-11-26T20:51:24.224Z,9.68
2022-11-26T20:53:52.401Z,4.57
2022-11-26T20:56:22.071Z,4.15
2022-11-26T20:58:51.137Z,8.18
2022-11-26T21:01:25.991Z,6.72
2022-11-26T21:03:54.110Z,7.43
2022-11-26T21:06:28.932Z,13.30
2022-11-26T21:08:59.394Z,10.77
2022-11-26T21:11:26.251Z,7.68
2022-11-26T21:13:53.052Z,6.47
2022-11-26T21:16:19.938Z,7.53
2022-11-26T21:18:47.186Z,12.88
2022-11-26T21:21:16.029Z,7.53
2022-11-26T21:23:44.759Z,3.92
2022-11-26T21:26:15.799Z,4.30
2022-11-26T21:28:42.709Z,9.55
2022-11-26T21:31:17.511Z,7.18
2022-11-26T21:33:53.208Z,7.03
2022-11-26T21:36:20.048Z,5.18
2022-11-26T21:38:50.061Z,3.58
2022-11-26T21:41:19.774Z,4.55
2022-11-26T21:43:47.847Z,6.57
2022-11-26T21:46:18.264Z,6.32
2022-11-26T21:48:45.319Z,8.02
2022-11-26T21:51:17.531Z,4.25
2022-11-26T21:53:45.092Z,7.30
2022-11-26T21:56:16.070Z,7.28
2022-11-26T21:58:43.304Z,6.32
2022-11-26T22:01:14.920Z,4.18
2022-11-26T22:03:43.487Z,14.43
2022-11-26T22:06:11.195Z,7.28
2022-11-26T22:08:38.420Z,10.43
2022-11-26T22:11:13.521Z,9.45
2022-11-26T22:13:41.434Z,10.23
2022-11-26T22:16:10.421Z,11.18
2022-11-26T22:18:41.670Z,16.10
2022-11-26T22:21:13.255Z,14.43
2022-11-26T22:23:40.201Z,20.48
2022-11-26T22:26:07.138Z,16.67
2022-11-26T22:28:35.075Z,15.30
2022-11-26T22:31:18.154Z,16.20
2022-11-26T22:33:45.195Z,12.10
2022-11-26T22:36:12.311Z,13.07
2022-11-26T22:38:40.710Z,18.23
2022-11-26T22:41:10.413Z,13.73
2022-11-26T22:43:37.334Z,10.85
2022-11-26T22:46:09.920Z,11.40
2022-11-26T22:48:36.787Z,16.25
2022-11-26T22:51:04.449Z,11.98
2022-11-26T22:53:33.450Z,11.65
2022-11-26T22:56:02.898Z,11.05
2022-11-26T22:58:30.956Z,7.68
2022-11-26T23:01:06.583Z,12.60
2022-11-26T23:03:35.162Z,9.25
2022-11-26T23:06:08.091Z,12.52
2022-11-26T23:08:35.410Z,5.60
2022-11-26T23:11:32.653Z,6.65
2022-11-26T23:18:55.480Z,6.90
2022-11-26T23:21:25.433Z,4.28
2022-11-26T23:23:53.013Z,5.65
2022-11-26T23:26:26.877Z,6.68
2022-11-26T23:28:55.840Z,5.93
2022-11-26T23:31:25.513Z,9.90
2022-11-26T23:33:52.383Z,7.18
2022-11-26T23:36:20.615Z,8.43
2022-11-26T23:38:47.915Z,5.30
2022-11-26T23:41:15.058Z,6.65
2022-11-26T23:43:42.196Z,10.10
2022-11-26T23:46:29.691Z,7.45
2022-11-26T23:48:57.336Z,4.05
2022-11-26T23:51:30.064Z,4.50
2022-11-26T23:53:57.090Z,5.25
2022-11-26T23:56:32.402Z,3.40
2022-11-26T23:59:02.954Z,4.85
